Time;durP1;ratioP1;P1;durP2;ratioP2;P2;SDS_P1;SDS_P2;PMS_P1;PMS_P2;Temp;Humidity;BMP_temperature;BMP_pressure;BME280_temperature;BME280_humidity;BME280_pressure;Samples;Min_cycle;Max_cycle;Signal;HPM_P1;HPM_P2
2024/03/14 00:00:50;;;;;;;6.35;3.63;;;10.60;99.90;;;;;;4987735;28;20031;-70
2024/03/14 00:03:19;;;;;;;9.45;3.42;;;10.60;99.90;;;;;;4965975;28;20044;-72
2024/03/14 00:05:44;;;;;;;5.93;2.10;;;10.60;99.90;;;;;;4987606;28;20519;-73
2024/03/14 00:08:10;;;;;;;4.88;2.17;;;10.60;99.90;;;;;;4981491;28;20039;-71
2024/03/14 00:10:37;;;;;;;6.32;3.00;;;10.60;99.90;;;;;;4973439;28;20567;-71
2024/03/14 00:13:03;;;;;;;5.75;3.05;;;10.60;99.90;;;;;;4981255;28;20558;-71
2024/03/14 00:15:29;;;;;;;3.42;2.45;;;10.60;99.90;;;;;;4987923;28;20511;-71
2024/03/14 00:17:55;;;;;;;5.75;3.00;;;10.60;99.90;;;;;;4982242;28;20031;-71
2024/03/14 00:20:22;;;;;;;6.22;2.85;;;10.60;99.90;;;;;;4988197;28;20081;-71
2024/03/14 00:22:48;;;;;;;6.28;3.10;;;10.60;99.90;;;;;;4965570;28;20045;-71
2024/03/14 00:25:15;;;;;;;8.30;2.97;;;10.60;99.90;;;;;;4983514;28;20035;-71
2024/03/14 00:27:43;;;;;;;5.05;2.67;;;10.60;99.90;;;;;;4963890;28;20030;-72
2024/03/14 00:30:11;;;;;;;5.13;3.22;;;10.50;99.90;;;;;;4984127;28;20039;-72
2024/03/14 00:32:40;;;;;;;8.82;3.10;;;10.50;99.90;;;;;;4972801;28;20034;-72
2024/03/14 00:35:06;;;;;;;5.43;3.25;;;10.50;99.90;;;;;;4968989;28;20045;-73
2024/03/14 00:37:33;;;;;;;5.43;2.85;;;10.50;99.90;;;;;;4971774;28;20057;-72
2024/03/14 00:39:58;;;;;;;5.88;2.97;;;10.50;99.90;;;;;;4982545;28;20085;-72
2024/03/14 00:42:25;;;;;;;6.13;2.85;;;10.50;99.90;;;;;;4990228;28;20114;-72
2024/03/14 00:44:53;;;;;;;6.70;3.33;;;10.60;99.90;;;;;;4982168;28;20054;-72
2024/03/14 00:47:20;;;;;;;6.15;3.25;;;10.60;99.90;;;;;;4995605;28;20098;-72
2024/03/14 00:49:47;;;;;;;4.28;2.42;;;10.60;99.90;;;;;;4965526;28;20050;-72
2024/03/14 00:52:13;;;;;;;5.93;2.65;;;10.70;99.90;;;;;;4979756;28;20134;-72
2024/03/14 00:54:38;;;;;;;6.60;2.65;;;10.60;99.90;;;;;;4980364;28;20122;-72
2024/03/14 00:57:04;;;;;;;8.15;3.67;;;10.60;99.90;;;;;;4987512;28;20037;-73
2024/03/14 00:59:30;;;;;;;11.00;3.75;;;10.70;99.90;;;;;;4963723;28;20054;-72
2024/03/14 01:01:56;;;;;;;4.25;2.85;;;10.60;99.90;;;;;;4995856;28;20054;-72
2024/03/14 01:04:22;;;;;;;5.00;2.47;;;10.60;99.90;;;;;;4983840;28;20482;-71
2024/03/14 01:06:49;;;;;;;6.93;3.22;;;10.60;99.90;;;;;;4985795;28;20031;-71
2024/03/14 01:09:16;;;;;;;4.70;2.70;;;10.60;99.90;;;;;;4956237;28;20043;-71
2024/03/14 01:11:43;;;;;;;6.95;3.03;;;10.60;99.90;;;;;;4969944;28;20394;-71
2024/03/14 01:14:12;;;;;;;6.53;3.38;;;10.60;99.90;;;;;;4986933;28;20122;-71
2024/03/14 01:16:39;;;;;;;8.82;3.70;;;10.60;99.90;;;;;;4983336;28;20046;-71
2024/03/14 01:19:08;;;;;;;7.75;3.22;;;10.60;99.90;;;;;;4964832;28;20138;-71
2024/03/14 01:21:41;;;;;;;7.13;3.00;;;10.60;99.90;;;;;;4995554;28;20031;-71
2024/03/14 01:24:07;;;;;;;7.68;2.85;;;10.60;99.90;;;;;;4986027;28;20101;-72
2024/03/14 01:26:33;;;;;;;6.90;3.35;;;10.50;99.90;;;;;;4994356;28;20029;-71
2024/03/14 01:28:59;;;;;;;8.70;3.25;;;10.50;99.90;;;;;;4968751;28;20031;-71
2024/03/14 01:31:25;;;;;;;4.82;2.97;;;10.50;99.90;;;;;;5035936;23;21141;-66
2024/03/14 01:33:51;;;;;;;7.07;2.88;;;10.60;99.90;;;;;;5008516;28;20034;-66
2024/03/14 01:36:17;;;;;;;8.38;3.33;;;10.60;99.90;;;;;;5007889;28;20029;-66
2024/03/14 01:38:43;;;;;;;5.20;3.28;;;10.60;99.90;;;;;;4993793;28;20030;-66
2024/03/14 01:41:21;;;;;;;5.32;2.83;;;10.50;99.90;;;;;;5029900;28;20029;-67
2024/03/14 01:43:56;;;;;;;3.78;2.83;;;10.50;99.90;;;;;;5012448;28;20029;-66
2024/03/14 01:46:24;;;;;;;8.68;2.78;;;10.50;99.90;;;;;;5011042;28;20486;-66
2024/03/14 01:48:50;;;;;;;7.30;3.10;;;10.40;99.90;;;;;;5011743;28;20034;-66
2024/03/14 01:51:15;;;;;;;11.45;3.83;;;10.40;99.90;;;;;;5013133;28;20367;-66
2024/03/14 01:53:41;;;;;;;3.67;2.67;;;10.40;99.90;;;;;;5015017;28;20041;-66
2024/03/14 01:56:07;;;;;;;7.18;2.65;;;10.40;99.90;;;;;;5014210;28;20077;-66
2024/03/14 01:58:33;;;;;;;6.28;3.10;;;10.40;99.90;;;;;;5010838;28;20036;-66
2024/03/14 02:01:00;;;;;;;6.70;3.63;;;10.30;99.90;;;;;;5014860;28;20041;-66
2024/03/14 02:03:26;;;;;;;8.32;3.58;;;10.30;99.90;;;;;;5008866;28;20037;-67
2024/03/14 02:06:07;;;;;;;8.30;3.42;;;10.20;99.90;;;;;;5009500;28;20030;-67
2024/03/14 02:08:34;;;;;;;7.45;3.22;;;10.30;99.90;;;;;;5028540;28;20033;-67
2024/03/14 02:11:01;;;;;;;6.72;3.15;;;10.20;99.90;;;;;;5012313;28;20034;-67
2024/03/14 02:13:27;;;;;;;6.30;2.72;;;10.20;99.90;;;;;;5009740;28;20534;-67
2024/03/14 02:15:53;;;;;;;3.08;2.20;;;10.20;99.90;;;;;;5014049;28;20457;-67
2024/03/14 02:18:19;;;;;;;6.88;2.65;;;10.20;99.90;;;;;;5009718;28;20037;-67
2024/03/14 02:20:45;;;;;;;5.93;3.28;;;10.20;99.90;;;;;;5014200;28;20486;-67
2024/03/14 02:23:11;;;;;;;8.10;3.08;;;10.20;99.90;;;;;;5024846;28;20040;-67
2024/03/14 02:25:36;;;;;;;6.05;3.38;;;10.20;99.90;;;;;;5014150;28;20038;-67
2024/03/14 02:28:03;;;;;;;7.20;3.00;;;10.20;99.90;;;;;;5028892;28;20112;-67
2024/03/14 02:30:29;;;;;;;7.47;4.35;;;10.10;99.90;;;;;;5013087;28;20029;-67
2024/03/14 02:32:54;;;;;;;7.07;3.13;;;10.20;99.90;;;;;;5009290;28;20505;-67
2024/03/14 02:35:20;;;;;;;11.95;3.75;;;10.10;99.90;;;;;;5013960;28;20429;-67
2024/03/14 02:37:46;;;;;;;6.70;3.35;;;10.10;99.90;;;;;;5012131;28;20029;-67
2024/03/14 02:40:12;;;;;;;10.20;3.97;;;10.10;99.90;;;;;;5013924;28;20042;-66
2024/03/14 02:42:38;;;;;;;6.40;3.38;;;10.10;99.90;;;;;;5009363;28;20471;-67
2024/03/14 02:45:06;;;;;;;4.53;3.28;;;10.10;99.90;;;;;;5013974;28;20694;-67
2024/03/14 02:47:31;;;;;;;6.57;3.38;;;10.10;99.90;;;;;;5008137;28;20022;-67
2024/03/14 02:49:57;;;;;;;6.55;2.53;;;10.00;99.90;;;;;;5011509;28;20056;-67
2024/03/14 02:52:23;;;;;;;5.68;3.08;;;10.00;99.90;;;;;;5024200;28;20025;-67
2024/03/14 02:54:49;;;;;;;8.85;2.63;;;10.00;99.90;;;;;;5012688;28;20038;-67
2024/03/14 02:57:14;;;;;;;7.55;3.03;;;9.90;99.90;;;;;;5013607;28;20112;-67
2024/03/14 02:59:40;;;;;;;8.73;3.00;;;10.00;99.90;;;;;;5013919;28;20033;-67
2024/03/14 03:02:10;;;;;;;5.38;3.10;;;10.00;99.90;;;;;;5013258;28;20030;-67
2024/03/14 03:04:37;;;;;;;7.03;2.97;;;9.90;99.90;;;;;;5013181;28;20144;-67
2024/03/14 03:07:05;;;;;;;8.00;3.78;;;9.90;99.90;;;;;;5008378;28;20022;-67
2024/03/14 03:09:31;;;;;;;5.25;2.85;;;9.90;99.90;;;;;;5012609;28;20638;-67
2024/03/14 03:11:59;;;;;;;8.07;3.45;;;9.90;99.90;;;;;;5007234;28;20060;-67
2024/03/14 03:14:26;;;;;;;7.05;2.70;;;9.90;99.90;;;;;;4980099;28;20025;-67
2024/03/14 03:16:53;;;;;;;6.07;2.55;;;9.80;99.90;;;;;;5008158;28;20502;-66
2024/03/14 03:19:18;;;;;;;5.45;3.08;;;9.80;99.90;;;;;;5011932;28;20033;-66
2024/03/14 03:21:44;;;;;;;12.73;2.92;;;9.80;99.90;;;;;;5008417;28;20038;-67
2024/03/14 03:24:12;;;;;;;5.72;3.28;;;9.80;99.90;;;;;;5012613;28;20314;-66
2024/03/14 03:26:41;;;;;;;4.80;2.42;;;9.70;99.90;;;;;;5008391;28;20022;-67
2024/03/14 03:29:07;;;;;;;10.32;3.97;;;9.70;99.90;;;;;;5005137;28;20022;-67
2024/03/14 03:31:32;;;;;;;7.10;3.60;;;9.70;99.90;;;;;;5007571;28;20038;-68
2024/03/14 03:33:58;;;;;;;4.38;2.53;;;9.70;99.90;;;;;;5026678;28;20463;-68
2024/03/14 03:36:29;;;;;;;4.93;3.17;;;9.60;99.90;;;;;;5008921;28;20042;-68
2024/03/14 03:38:56;;;;;;;12.57;3.88;;;9.70;99.90;;;;;;5009796;28;20062;-68
2024/03/14 03:41:23;;;;;;;5.45;2.70;;;9.60;99.90;;;;;;5010202;28;20037;-68
2024/03/14 03:43:52;;;;;;;5.88;2.70;;;9.60;99.90;;;;;;5009115;28;20041;-68
2024/03/14 03:46:18;;;;;;;8.63;4.55;;;9.60;99.90;;;;;;5009569;28;20030;-68
2024/03/14 03:48:44;;;;;;;10.80;3.05;;;9.60;99.90;;;;;;5008235;28;20044;-67
2024/03/14 03:51:13;;;;;;;7.70;3.95;;;9.60;99.90;;;;;;5010693;28;20440;-67
2024/03/14 03:53:39;;;;;;;6.60;3.53;;;9.60;99.90;;;;;;5007378;28;20029;-67
2024/03/14 03:56:04;;;;;;;6.88;3.60;;;9.60;99.90;;;;;;5011652;28;20164;-67
2024/03/14 03:58:34;;;;;;;7.78;3.63;;;9.60;99.90;;;;;;5006709;28;20030;-68
2024/03/14 04:01:22;;;;;;;6.57;3.10;;;9.50;99.90;;;;;;5010778;28;20453;-68
2024/03/14 04:03:48;;;;;;;5.78;3.00;;;9.50;99.90;;;;;;5012664;28;20053;-68
2024/03/14 04:06:15;;;;;;;8.77;3.15;;;9.50;99.90;;;;;;5011575;28;20798;-68
2024/03/14 04:08:41;;;;;;;9.00;3.45;;;9.50;99.90;;;;;;5009444;28;20120;-68
2024/03/14 04:11:07;;;;;;;5.68;2.97;;;9.50;99.90;;;;;;5010765;28;20037;-68
2024/03/14 04:13:33;;;;;;;6.35;3.17;;;9.50;99.90;;;;;;5023307;28;20120;-68
2024/03/14 04:16:05;;;;;;;6.55;2.92;;;9.50;99.90;;;;;;5011984;28;20108;-68
2024/03/14 04:18:32;;;;;;;7.80;3.28;;;9.50;99.90;;;;;;5007909;28;20032;-67
2024/03/14 04:20:58;;;;;;;4.20;2.47;;;9.50;99.90;;;;;;5012401;28;20025;-67
2024/03/14 04:23:27;;;;;;;7.40;2.75;;;9.50;99.90;;;;;;4999317;28;20034;-68
2024/03/14 04:25:56;;;;;;;7.15;3.33;;;9.40;99.90;;;;;;5012370;28;20467;-68
2024/03/14 04:28:25;;;;;;;10.52;2.75;;;9.40;99.90;;;;;;5006868;28;20077;-68
2024/03/14 04:30:51;;;;;;;6.00;3.08;;;9.40;99.90;;;;;;5012227;28;20028;-68
2024/03/14 04:33:18;;;;;;;5.13;2.67;;;9.40;99.90;;;;;;5007288;28;20038;-68
2024/03/14 04:35:45;;;;;;;7.13;2.72;;;9.30;99.90;;;;;;5010265;28;20068;-68
2024/03/14 04:38:12;;;;;;;4.03;2.55;;;9.20;99.90;;;;;;5005944;28;20641;-68
2024/03/14 04:40:39;;;;;;;3.63;1.88;;;9.30;99.90;;;;;;5011173;28;20033;-68
2024/03/14 04:43:05;;;;;;;6.07;3.03;;;9.20;99.90;;;;;;5005708;28;20036;-67
2024/03/14 04:45:30;;;;;;;6.53;2.22;;;9.10;99.90;;;;;;5012062;28;20038;-67
2024/03/14 04:47:56;;;;;;;4.07;1.95;;;9.10;99.90;;;;;;5007285;28;20037;-67
2024/03/14 04:50:22;;;;;;;2.90;1.67;;;9.10;99.90;;;;;;5012063;28;20030;-67
2024/03/14 04:52:49;;;;;;;6.63;3.47;;;9.10;99.90;;;;;;5005701;28;20134;-67
2024/03/14 04:55:14;;;;;;;11.32;2.35;;;9.10;99.90;;;;;;5010508;28;20030;-67
2024/03/14 04:57:41;;;;;;;8.07;3.13;;;9.20;99.90;;;;;;5007401;28;20033;-67
2024/03/14 05:00:11;;;;;;;5.57;2.90;;;9.20;99.90;;;;;;5011814;28;20033;-67
2024/03/14 05:02:39;;;;;;;6.55;4.03;;;9.10;99.90;;;;;;5006526;28;20030;-67
2024/03/14 05:05:09;;;;;;;4.50;2.83;;;9.10;99.90;;;;;;5011332;28;20104;-67
2024/03/14 05:07:38;;;;;;;3.75;2.25;;;9.10;99.90;;;;;;5005457;28;20482;-67
2024/03/14 05:10:05;;;;;;;6.78;2.90;;;9.10;99.90;;;;;;5010374;28;20196;-67
2024/03/14 05:12:31;;;;;;;5.95;4.10;;;9.10;99.90;;;;;;5001551;28;20089;-67
2024/03/14 05:14:57;;;;;;;3.97;2.83;;;9.10;99.90;;;;;;5014325;28;20172;-67
2024/03/14 05:17:24;;;;;;;7.90;2.95;;;9.10;99.90;;;;;;5011116;28;20038;-67
2024/03/14 05:19:50;;;;;;;4.13;2.20;;;9.10;99.90;;;;;;5014091;28;20505;-67
2024/03/14 05:22:17;;;;;;;56.13;23.58;;;9.10;99.90;;;;;;5015026;28;20088;-68
2024/03/14 05:24:43;;;;;;;59.92;26.52;;;9.00;99.90;;;;;;5014946;28;20032;-68
2024/03/14 05:27:09;;;;;;;12.05;4.63;;;8.90;99.90;;;;;;5010746;28;20092;-68
2024/03/14 05:29:36;;;;;;;5.00;3.13;;;8.90;99.90;;;;;;5013762;28;20123;-68
2024/03/14 05:32:05;;;;;;;8.88;3.92;;;9.00;99.90;;;;;;5009760;28;20418;-68
2024/03/14 05:34:32;;;;;;;6.40;3.60;;;8.90;99.90;;;;;;5013247;28;20065;-68
2024/03/14 05:36:58;;;;;;;5.68;2.85;;;8.90;99.90;;;;;;5010590;28;20026;-67
2024/03/14 05:39:24;;;;;;;6.85;3.05;;;8.90;99.90;;;;;;5014479;28;20026;-67
2024/03/14 05:41:50;;;;;;;5.63;3.17;;;9.00;99.90;;;;;;5010817;28;20121;-68
2024/03/14 05:44:16;;;;;;;5.65;3.33;;;8.90;99.90;;;;;;5029909;28;20022;-68
2024/03/14 05:46:41;;;;;;;9.90;3.45;;;8.90;99.90;;;;;;5009219;28;20038;-68
2024/03/14 05:49:08;;;;;;;8.85;3.83;;;8.80;99.90;;;;;;5005080;28;20045;-68
2024/03/14 05:51:35;;;;;;;7.25;3.25;;;8.80;99.90;;;;;;5024040;28;20034;-68
2024/03/14 05:54:00;;;;;;;8.23;3.35;;;8.70;99.90;;;;;;5019202;28;20501;-68
2024/03/14 05:56:27;;;;;;;7.78;4.18;;;8.80;99.90;;;;;;5019440;28;20038;-68
2024/03/14 05:58:52;;;;;;;6.78;3.42;;;8.80;99.90;;;;;;5019707;28;20018;-67
2024/03/14 06:01:18;;;;;;;5.78;3.33;;;8.70;99.90;;;;;;5017142;28;20506;-68
2024/03/14 06:03:46;;;;;;;5.78;2.92;;;8.80;99.90;;;;;;5020193;28;20057;-67
2024/03/14 06:06:13;;;;;;;8.85;3.97;;;8.80;99.90;;;;;;5018392;28;20427;-68
2024/03/14 06:08:40;;;;;;;7.85;4.72;;;8.80;99.90;;;;;;5021579;28;20117;-68
2024/03/14 06:11:05;;;;;;;5.95;3.55;;;8.80;99.90;;;;;;5013394;28;20120;-68
2024/03/14 06:13:33;;;;;;;7.93;4.20;;;8.80;99.90;;;;;;5020977;28;20121;-68
2024/03/14 06:15:58;;;;;;;9.85;3.35;;;8.80;99.90;;;;;;5007752;28;20034;-68
2024/03/14 06:18:24;;;;;;;14.73;3.75;;;8.80;99.90;;;;;;5009120;28;20034;-68
2024/03/14 06:20:50;;;;;;;12.05;4.63;;;8.80;99.90;;;;;;5014070;28;20375;-68
2024/03/14 06:23:16;;;;;;;14.10;4.32;;;8.80;99.90;;;;;;5009125;28;20037;-68
2024/03/14 06:25:41;;;;;;;8.07;4.00;;;8.80;99.90;;;;;;5013821;28;20042;-68
2024/03/14 06:28:07;;;;;;;12.00;4.38;;;8.80;99.90;;;;;;5009161;28;20030;-68
2024/03/14 06:30:34;;;;;;;10.45;4.50;;;8.80;99.90;;;;;;5012775;28;20072;-68
2024/03/14 06:33:00;;;;;;;7.53;4.20;;;8.80;99.90;;;;;;5008957;28;20033;-68
2024/03/14 06:35:27;;;;;;;9.35;3.30;;;8.80;99.90;;;;;;5013647;28;20394;-68
2024/03/14 06:37:57;;;;;;;5.88;3.95;;;8.80;99.90;;;;;;5007611;28;20509;-69
2024/03/14 06:40:23;;;;;;;9.57;3.83;;;8.80;99.90;;;;;;5013904;28;20159;-68
2024/03/14 06:42:49;;;;;;;10.30;4.75;;;8.80;99.90;;;;;;5008367;28;20092;-66
2024/03/14 06:45:15;;;;;;;7.53;3.85;;;8.80;99.90;;;;;;5013500;28;20036;-66
2024/03/14 06:47:43;;;;;;;11.13;3.35;;;8.80;99.90;;;;;;5007605;28;20083;-67
2024/03/14 06:50:09;;;;;;;11.15;3.92;;;8.80;99.90;;;;;;5028646;28;20034;-67
2024/03/14 06:52:36;;;;;;;12.02;4.35;;;8.80;99.90;;;;;;5008738;28;20044;-67
2024/03/14 06:55:03;;;;;;;9.32;3.22;;;8.80;99.90;;;;;;5012207;28;20498;-68
2024/03/14 06:57:29;;;;;;;11.05;4.22;;;8.80;99.90;;;;;;5008649;28;20038;-68
2024/03/14 06:59:54;;;;;;;8.93;4.70;;;8.80;99.90;;;;;;5028416;28;20026;-68
2024/03/14 07:02:21;;;;;;;8.52;4.38;;;8.90;99.90;;;;;;5008201;28;20037;-66
2024/03/14 07:04:48;;;;;;;13.43;5.00;;;8.90;99.90;;;;;;5013490;28;20030;-56
2024/03/14 07:07:16;;;;;;;7.70;4.38;;;8.90;99.90;;;;;;5008528;28;20029;-55
2024/03/14 07:09:42;;;;;;;7.47;3.60;;;8.90;99.90;;;;;;5013561;28;20093;-57
2024/03/14 07:12:10;;;;;;;6.25;3.22;;;9.00;99.90;;;;;;5007850;28;20029;-55
2024/03/14 07:14:36;;;;;;;5.13;3.70;;;9.00;99.90;;;;;;5013142;28;20037;-57
2024/03/14 07:17:02;;;;;;;6.63;3.67;;;9.00;99.90;;;;;;5008139;28;20034;-56
2024/03/14 07:19:28;;;;;;;10.38;4.53;;;9.10;99.90;;;;;;5013226;28;20022;-56
2024/03/14 07:21:53;;;;;;;8.68;3.50;;;9.10;99.90;;;;;;5007897;28;20038;-57
2024/03/14 07:24:23;;;;;;;5.95;3.72;;;9.10;99.90;;;;;;5013130;28;20030;-55
2024/03/14 07:26:49;;;;;;;10.15;5.45;;;9.20;99.90;;;;;;5007627;28;20030;-57
2024/03/14 07:29:16;;;;;;;12.30;5.03;;;9.20;99.90;;;;;;5013193;28;20490;-66
2024/03/14 07:31:45;;;;;;;15.15;4.68;;;9.30;99.90;;;;;;5007023;28;20427;-66
2024/03/14 07:34:11;;;;;;;14.68;4.07;;;9.40;99.90;;;;;;5004804;28;20457;-66
2024/03/14 07:36:41;;;;;;;13.57;4.88;;;9.60;99.90;;;;;;5004766;28;20030;-66
2024/03/14 07:39:10;;;;;;;11.27;4.55;;;9.80;99.90;;;;;;5026336;28;20018;-66
2024/03/14 07:41:40;;;;;;;7.72;4.30;;;9.80;99.90;;;;;;5006966;28;20073;-66
2024/03/14 07:44:07;;;;;;;8.32;4.18;;;9.90;99.90;;;;;;5012214;28;20026;-66
2024/03/14 07:46:34;;;;;;;11.93;4.90;;;10.10;99.90;;;;;;5008495;28;20026;-66
2024/03/14 07:49:00;;;;;;;12.27;4.78;;;10.20;99.90;;;;;;5011234;28;20041;-65
2024/03/14 07:51:26;;;;;;;12.70;5.75;;;10.30;99.90;;;;;;5009040;28;20037;-66
2024/03/14 07:53:52;;;;;;;23.73;6.53;;;10.40;99.90;;;;;;5009223;28;20030;-66
2024/03/14 07:56:21;;;;;;;9.50;4.93;;;10.40;99.90;;;;;;5010003;28;20029;-66
2024/03/14 07:58:46;;;;;;;12.10;4.95;;;10.60;99.90;;;;;;5020585;28;20104;-66
2024/03/14 08:01:16;;;;;;;11.98;5.35;;;10.80;99.90;;;;;;5010848;28;20482;-66
2024/03/14 08:03:42;;;;;;;8.90;5.18;;;10.80;99.90;;;;;;5006570;28;20466;-66
2024/03/14 08:06:14;;;;;;;13.50;5.35;;;10.90;99.90;;;;;;5007449;28;20535;-66
2024/03/14 08:08:40;;;;;;;8.38;3.65;;;10.90;99.90;;;;;;5008267;28;20034;-66
2024/03/14 08:11:09;;;;;;;13.48;5.68;;;11.10;99.90;;;;;;5009892;28;20443;-66
2024/03/14 08:13:35;;;;;;;13.20;4.90;;;11.20;99.90;;;;;;5022283;28;20474;-66
2024/03/14 08:18:56;;;;;;;8.77;4.95;;;11.30;99.90;;;;;;5010975;28;20042;-66
2024/03/14 08:21:22;;;;;;;7.20;3.80;;;11.50;99.90;;;;;;5010071;28;20034;-65
2024/03/14 08:23:48;;;;;;;8.32;4.82;;;11.50;99.90;;;;;;5009207;28;20509;-66
2024/03/14 08:26:17;;;;;;;10.25;4.40;;;11.50;99.90;;;;;;5010959;28;20030;-66
2024/03/14 08:28:43;;;;;;;9.70;4.30;;;11.60;99.90;;;;;;5008529;28;20182;-66
2024/03/14 08:31:14;;;;;;;16.92;6.57;;;11.70;99.90;;;;;;5026056;28;20030;-66
2024/03/14 08:33:44;;;;;;;8.30;4.20;;;11.70;99.90;;;;;;5007621;28;20079;-66
2024/03/14 08:36:11;;;;;;;11.88;6.15;;;11.80;99.90;;;;;;5001196;28;20038;-67
2024/03/14 08:38:36;;;;;;;11.80;5.63;;;11.80;99.90;;;;;;5008450;28;20033;-66
2024/03/14 08:41:03;;;;;;;11.80;5.05;;;11.70;99.90;;;;;;5010438;28;20467;-66
2024/03/14 08:43:36;;;;;;;12.80;7.03;;;11.60;99.90;;;;;;5011249;28;20037;-66
2024/03/14 08:46:02;;;;;;;8.18;4.88;;;11.70;99.90;;;;;;5008730;28;20023;-65
2024/03/14 08:48:28;;;;;;;8.60;4.78;;;11.80;99.90;;;;;;5010343;28;20069;-66
2024/03/14 08:50:54;;;;;;;17.88;6.90;;;11.80;99.90;;;;;;5010624;28;20439;-67
2024/03/14 08:53:20;;;;;;;12.02;5.88;;;11.90;99.90;;;;;;5011531;28;20152;-66
2024/03/14 08:55:55;;;;;;;11.88;6.57;;;11.90;99.90;;;;;;5008677;28;20379;-66
2024/03/14 08:58:25;;;;;;;10.07;5.78;;;12.00;99.90;;;;;;5011296;28;20041;-66
2024/03/14 09:00:56;;;;;;;16.17;5.13;;;12.20;99.90;;;;;;5009238;28;20030;-66
2024/03/14 09:03:22;;;;;;;10.32;5.40;;;12.20;99.90;;;;;;5011251;28;20434;-67
2024/03/14 09:05:49;;;;;;;17.30;5.65;;;12.40;99.90;;;;;;5009336;28;20040;-66
2024/03/14 09:08:18;;;;;;;9.75;5.28;;;12.40;99.90;;;;;;5006836;28;20034;-67
2024/03/14 09:10:45;;;;;;;9.35;5.72;;;12.50;99.90;;;;;;5021384;28;20084;-66
2024/03/14 09:13:11;;;;;;;8.85;5.20;;;12.60;99.90;;;;;;4985765;28;20038;-66
2024/03/14 09:15:36;;;;;;;9.25;4.50;;;12.60;99.90;;;;;;5010285;28;20026;-66
2024/03/14 09:18:03;;;;;;;10.80;5.28;;;12.60;99.90;;;;;;5010086;28;20042;-66
2024/03/14 09:20:29;;;;;;;10.30;4.93;;;12.60;99.90;;;;;;5011236;28;20034;-66
2024/03/14 09:22:55;;;;;;;11.82;4.90;;;12.60;99.90;;;;;;5009444;28;20443;-66
2024/03/14 09:25:22;;;;;;;10.65;6.20;;;12.20;99.90;;;;;;5009257;28;20089;-66
2024/03/14 09:27:49;;;;;;;11.45;5.55;;;12.20;99.90;;;;;;5009668;28;20026;-66
2024/03/14 09:30:17;;;;;;;8.95;4.25;;;12.20;99.90;;;;;;5010017;28;20105;-66
2024/03/14 09:32:43;;;;;;;8.45;5.13;;;12.40;99.90;;;;;;5009357;28;20038;-66
2024/03/14 09:35:13;;;;;;;7.78;4.20;;;12.60;99.90;;;;;;5010635;28;20040;-67
2024/03/14 09:37:39;;;;;;;13.63;5.37;;;12.80;99.90;;;;;;5009484;28;20041;-66
2024/03/14 09:40:06;;;;;;;8.30;4.07;;;12.80;99.90;;;;;;5009040;28;20088;-67
2024/03/14 09:42:32;;;;;;;13.32;4.30;;;13.00;99.90;;;;;;5008475;28;20419;-66
2024/03/14 09:45:03;;;;;;;8.20;4.43;;;13.20;99.90;;;;;;5010240;28;20518;-66
2024/03/14 09:47:40;;;;;;;;;;;13.50;99.90;;;;;;5010203;28;20069;-66
2024/03/14 09:50:15;;;;;;;7.63;3.90;;;13.60;99.90;;;;;;5009564;28;19909;-64
2024/03/14 09:52:43;;;;;;;12.07;4.38;;;13.40;99.90;;;;;;5009388;28;20034;-65
2024/03/14 09:55:13;;;;;;;6.57;3.40;;;13.60;99.90;;;;;;5009594;28;20022;-66
2024/03/14 09:57:40;;;;;;;5.28;3.78;;;13.70;99.90;;;;;;5002356;28;20652;-66
2024/03/14 10:00:11;;;;;;;14.57;4.25;;;13.30;99.90;;;;;;5011168;28;20118;-66
2024/03/14 10:02:37;;;;;;;;;;;13.50;99.90;;;;;;5013749;28;20041;-66
2024/03/14 10:05:03;;;;;;;6.20;3.25;;;13.90;99.90;;;;;;5013712;28;19996;-66
2024/03/14 10:07:32;;;;;;;6.32;3.75;;;13.90;99.90;;;;;;5011481;28;20065;-66
2024/03/14 10:09:58;;;;;;;6.57;3.22;;;14.20;99.90;;;;;;5012766;28;20382;-66
2024/03/14 10:12:24;;;;;;;7.47;3.00;;;14.60;99.90;;;;;;5012094;28;20037;-66
2024/03/14 10:15:12;;;;;;;4.80;2.75;;;14.70;99.90;;;;;;5028706;28;20621;-66
2024/03/14 10:17:40;;;;;;;5.65;3.55;;;14.30;99.90;;;;;;5002085;28;20080;-66
2024/03/14 10:20:17;;;;;;;5.82;3.53;;;14.20;99.90;;;;;;5013722;28;20641;-67
2024/03/14 10:22:50;;;;;;;5.60;3.10;;;14.20;99.90;;;;;;5012649;28;20109;-66
2024/03/14 10:25:23;;;;;;;7.70;3.53;;;14.70;99.90;;;;;;5003634;28;20503;-66
2024/03/14 10:27:51;;;;;;;4.68;2.95;;;14.40;99.90;;;;;;5009966;28;20025;-66
2024/03/14 10:30:18;;;;;;;6.07;3.13;;;14.60;99.90;;;;;;5011219;28;20030;-66
2024/03/14 10:32:47;;;;;;;7.25;4.30;;;14.70;99.90;;;;;;5010660;28;20080;-66
2024/03/14 10:35:14;;;;;;;4.80;2.63;;;14.90;99.90;;;;;;5011554;28;20084;-66
2024/03/14 10:37:46;;;;;;;13.85;3.28;;;15.10;99.90;;;;;;5010515;28;20034;-66
2024/03/14 10:40:20;;;;;;;6.15;3.05;;;15.10;99.90;;;;;;5002751;28;20044;-66
2024/03/14 10:42:50;;;;;;;6.57;3.55;;;15.40;99.90;;;;;;5010756;28;20044;-67
2024/03/14 10:45:20;;;;;;;4.90;3.33;;;15.50;99.90;;;;;;5010139;28;20030;-66
2024/03/14 10:47:49;;;;;;;5.97;3.63;;;16.00;99.90;;;;;;5009963;28;20406;-66
2024/03/14 10:50:19;;;;;;;8.35;3.30;;;16.20;99.90;;;;;;5003651;28;20037;-66
2024/03/14 10:52:50;;;;;;;7.60;3.10;;;16.50;99.90;;;;;;5009371;28;20149;-66
2024/03/14 10:55:21;;;;;;;5.55;2.58;;;15.90;99.90;;;;;;5023542;28;20288;-66
2024/03/14 10:57:50;;;;;;;;;;;16.20;99.90;;;;;;5011179;28;20046;-66
2024/03/14 11:00:21;;;;;;;6.50;3.10;;;16.40;99.90;;;;;;5010978;28;19960;-67
2024/03/14 11:02:49;;;;;;;6.22;2.35;;;16.30;99.90;;;;;;5010705;28;20585;-66
2024/03/14 11:05:22;;;;;;;6.22;2.80;;;16.80;99.90;;;;;;5012333;28;20037;-67
2024/03/14 11:07:53;;;;;;;3.83;2.42;;;16.60;99.90;;;;;;5009955;28;20030;-66
2024/03/14 11:10:31;;;;;;;5.18;2.50;;;16.20;99.90;;;;;;4993958;28;20045;-66
2024/03/14 11:13:25;;;;;;;3.35;2.35;;;15.90;99.90;;;;;;5011189;28;20049;-67
2024/03/14 11:15:54;;;;;;;8.38;2.28;;;16.40;99.90;;;;;;5009056;28;20122;-67
2024/03/14 11:18:27;;;;;;;7.30;2.25;;;16.80;99.90;;;;;;5011984;28;20033;-66
2024/03/14 11:20:56;;;;;;;6.57;2.35;;;16.40;99.90;;;;;;5010579;28;20964;-66
2024/03/14 11:23:28;;;;;;;4.97;2.47;;;17.00;99.90;;;;;;5026398;28;20028;-66
2024/03/14 11:26:00;;;;;;;4.90;2.25;;;16.60;99.90;;;;;;5010455;28;20057;-66
2024/03/14 11:28:28;;;;;;;2.67;1.73;;;16.60;99.90;;;;;;5010536;28;20034;-66
2024/03/14 11:30:56;;;;;;;4.60;2.25;;;16.30;99.90;;;;;;5008710;28;20042;-65
2024/03/14 11:33:26;;;;;;;4.40;2.33;;;16.50;99.90;;;;;;5002676;28;244923;-66
2024/03/14 11:35:56;;;;;;;4.25;2.22;;;16.60;99.90;;;;;;5010555;28;20037;-65
2024/03/14 11:38:23;;;;;;;6.78;2.95;;;16.60;99.90;;;;;;5011762;28;20121;-65
2024/03/14 11:40:53;;;;;;;4.95;1.67;;;17.00;99.90;;;;;;5008710;28;20030;-65
2024/03/14 11:43:26;;;;;;;3.80;2.22;;;17.00;99.90;;;;;;5010911;28;20125;-65
2024/03/14 11:46:00;;;;;;;5.00;2.30;;;17.60;99.90;;;;;;5010037;28;20105;-65
2024/03/14 11:48:29;;;;;;;2.88;1.90;;;18.20;99.90;;;;;;5026908;28;20537;-65
2024/03/14 11:50:58;;;;;;;4.05;2.05;;;18.50;99.90;;;;;;5010044;28;20085;-66
2024/03/14 11:53:25;;;;;;;2.88;1.33;;;19.40;99.90;;;;;;5011215;28;20038;-66
2024/03/14 11:55:55;;;;;;;2.80;1.65;;;20.60;99.90;;;;;;5024887;28;20037;-66
2024/03/14 11:58:21;;;;;;;4.43;1.80;;;18.90;99.90;;;;;;5010169;28;20701;-66
2024/03/14 12:00:49;;;;;;;3.72;1.88;;;18.60;99.90;;;;;;5000770;28;20026;-66
2024/03/14 12:03:15;;;;;;;2.17;1.25;;;18.50;99.90;;;;;;5011241;28;20025;-65
2024/03/14 12:05:42;;;;;;;7.57;2.17;;;18.80;99.90;;;;;;5010750;28;20030;-66
2024/03/14 12:08:10;;;;;;;3.20;1.52;;;19.20;99.90;;;;;;5010917;28;20498;-66
2024/03/14 12:10:40;;;;;;;9.98;1.90;;;20.80;99.90;;;;;;5010003;28;20030;-66
2024/03/14 12:13:13;;;;;;;3.17;1.87;;;21.60;98.20;;;;;;5010719;28;20026;-66
2024/03/14 12:15:40;;;;;;;2.13;1.25;;;19.90;99.70;;;;;;5010673;28;20022;-66
2024/03/14 12:18:10;;;;;;;4.78;1.70;;;20.80;98.20;;;;;;5010330;28;20126;-66
2024/03/14 12:20:37;;;;;;;1.77;0.98;;;21.50;96.80;;;;;;5009405;28;20072;-66
2024/03/14 12:23:07;;;;;;;2.13;1.13;;;21.70;94.80;;;;;;5023990;28;20685;-66
2024/03/14 12:25:37;;;;;;;1.90;1.30;;;21.40;94.70;;;;;;5010183;28;20025;-66
2024/03/14 12:28:04;;;;;;;2.35;1.40;;;21.10;92.50;;;;;;5009092;28;20030;-66
2024/03/14 12:30:33;;;;;;;2.88;1.35;;;21.00;94.90;;;;;;5010904;28;20029;-66
2024/03/14 12:33:01;;;;;;;3.47;1.65;;;21.30;97.30;;;;;;5009942;28;20129;-66
2024/03/14 12:35:27;;;;;;;1.90;1.17;;;21.50;95.90;;;;;;5020159;28;20085;-66
2024/03/14 12:37:54;;;;;;;2.90;1.40;;;22.30;92.90;;;;;;5024918;28;20034;-67
2024/03/14 12:40:23;;;;;;;3.35;1.45;;;22.40;93.50;;;;;;5009916;28;20026;-66
2024/03/14 12:42:50;;;;;;;3.47;1.23;;;21.10;92.70;;;;;;5008465;28;20112;-67
2024/03/14 12:45:17;;;;;;;2.67;1.00;;;21.00;94.30;;;;;;5009914;28;20026;-66
2024/03/14 12:47:44;;;;;;;5.80;1.20;;;20.30;94.90;;;;;;5009504;28;20054;-66
2024/03/14 12:50:24;;;;;;;1.98;1.10;;;21.90;92.10;;;;;;5011403;28;20037;-66
2024/03/14 12:53:04;;;;;;;1.30;0.70;;;21.40;91.50;;;;;;5008190;28;20112;-66
2024/03/14 12:55:33;;;;;;;2.85;1.13;;;22.90;90.00;;;;;;5026015;28;20285;-66